sensor_id;sensor_type;location;lat;lon;timestamp;P1;durP1;ratioP1;P2;durP2;ratioP2
53281;SDS011;39167;52.794;6.892;2023-03-01T00:01:17;24.35;;;14.05;;
53281;SDS011;39167;52.794;6.892;2023-03-01T00:03:53;25.80;;;15.00;;
53281;SDS011;39167;52.794;6.892;2023-03-01T00:06:20;27.10;;;15.32;;
53281;SDS011;39167;52.794;6.892;2023-03-01T00:08:46;26.52;;;15.60;;
53281;SDS011;39167;52.794;6.892;2023-03-01T00:11:13;24.77;;;14.50;;
53281;SDS011;39167;52.794;6.892;2023-03-01T00:13:42;27.17;;;15.38;;
53281;SDS011;39167;52.794;6.892;2023-03-01T00:16:10;22.38;;;14.52;;
53281;SDS011;39167;52.794;6.892;2023-03-01T00:18:37;25.38;;;15.20;;
53281;SDS011;39167;52.794;6.892;2023-03-01T00:21:03;25.27;;;15.05;;
53281;SDS011;39167;52.794;6.892;2023-03-01T00:23:30;25.23;;;14.57;;
53281;SDS011;39167;52.794;6.892;2023-03-01T00:25:56;27.08;;;14.75;;
53281;SDS011;39167;52.794;6.892;2023-03-01T00:28:22;23.90;;;15.00;;
53281;SDS011;39167;52.794;6.892;2023-03-01T00:30:48;24.25;;;14.80;;
53281;SDS011;39167;52.794;6.892;2023-03-01T00:33:14;24.77;;;14.63;;
53281;SDS011;39167;52.794;6.892;2023-03-01T00:35:40;24.52;;;14.35;;
53281;SDS011;39167;52.794;6.892;2023-03-01T00:38:06;23.35;;;15.40;;
53281;SDS011;39167;52.794;6.892;2023-03-01T00:40:32;27.48;;;16.10;;
53281;SDS011;39167;52.794;6.892;2023-03-01T00:42:59;23.58;;;14.98;;
53281;SDS011;39167;52.794;6.892;2023-03-01T00:45:25;24.70;;;15.02;;
53281;SDS011;39167;52.794;6.892;2023-03-01T00:47:51;28.83;;;15.32;;
53281;SDS011;39167;52.794;6.892;2023-03-01T00:50:19;26.45;;;14.38;;
53281;SDS011;39167;52.794;6.892;2023-03-01T00:52:45;22.80;;;14.82;;
53281;SDS011;39167;52.794;6.892;2023-03-01T00:55:11;27.38;;;15.18;;
53281;SDS011;39167;52.794;6.892;2023-03-01T00:57:37;25.88;;;15.45;;
53281;SDS011;39167;52.794;6.892;2023-03-01T01:00:06;25.33;;;14.98;;
53281;SDS011;39167;52.794;6.892;2023-03-01T01:02:34;26.17;;;15.35;;
53281;SDS011;39167;52.794;6.892;2023-03-01T01:05:01;28.20;;;14.80;;
53281;SDS011;39167;52.794;6.892;2023-03-01T01:07:27;22.92;;;14.52;;
53281;SDS011;39167;52.794;6.892;2023-03-01T01:09:52;25.80;;;16.05;;
53281;SDS011;39167;52.794;6.892;2023-03-01T01:12:18;26.25;;;14.85;;
53281;SDS011;39167;52.794;6.892;2023-03-01T01:14:44;24.85;;;14.95;;
53281;SDS011;39167;52.794;6.892;2023-03-01T01:17:09;21.80;;;14.43;;
53281;SDS011;39167;52.794;6.892;2023-03-01T01:19:35;24.00;;;14.77;;
53281;SDS011;39167;52.794;6.892;2023-03-01T01:22:01;24.63;;;15.35;;
53281;SDS011;39167;52.794;6.892;2023-03-01T01:24:27;25.00;;;15.63;;
53281;SDS011;39167;52.794;6.892;2023-03-01T01:26:53;24.70;;;14.52;;
53281;SDS011;39167;52.794;6.892;2023-03-01T01:29:18;28.02;;;15.23;;
53281;SDS011;39167;52.794;6.892;2023-03-01T01:31:44;23.30;;;14.23;;
53281;SDS011;39167;52.794;6.892;2023-03-01T01:34:17;26.27;;;15.02;;
53281;SDS011;39167;52.794;6.892;2023-03-01T01:36:49;25.25;;;15.15;;
53281;SDS011;39167;52.794;6.892;2023-03-01T01:39:18;24.25;;;15.10;;
53281;SDS011;39167;52.794;6.892;2023-03-01T01:41:44;26.08;;;15.40;;
53281;SDS011;39167;52.794;6.892;2023-03-01T01:44:20;31.10;;;16.13;;
53281;SDS011;39167;52.794;6.892;2023-03-01T01:47:02;27.33;;;15.85;;
53281;SDS011;39167;52.794;6.892;2023-03-01T01:49:32;29.05;;;17.00;;
53281;SDS011;39167;52.794;6.892;2023-03-01T01:55:05;23.53;;;14.93;;
53281;SDS011;39167;52.794;6.892;2023-03-01T01:57:37;26.40;;;16.00;;
53281;SDS011;39167;52.794;6.892;2023-03-01T02:00:14;27.88;;;15.57;;
53281;SDS011;39167;52.794;6.892;2023-03-01T02:02:41;27.67;;;16.88;;
53281;SDS011;39167;52.794;6.892;2023-03-01T02:05:17;28.40;;;16.55;;
53281;SDS011;39167;52.794;6.892;2023-03-01T02:08:01;29.38;;;16.45;;
53281;SDS011;39167;52.794;6.892;2023-03-01T02:10:28;27.67;;;15.70;;
53281;SDS011;39167;52.794;6.892;2023-03-01T02:12:58;25.58;;;14.43;;
53281;SDS011;39167;52.794;6.892;2023-03-01T02:15:24;29.65;;;16.55;;
53281;SDS011;39167;52.794;6.892;2023-03-01T02:17:52;26.45;;;16.52;;
53281;SDS011;39167;52.794;6.892;2023-03-01T02:22:52;26.08;;;16.98;;
53281;SDS011;39167;52.794;6.892;2023-03-01T02:25:34;28.48;;;16.33;;
53281;SDS011;39167;52.794;6.892;2023-03-01T02:30:39;29.30;;;16.42;;
53281;SDS011;39167;52.794;6.892;2023-03-01T02:33:31;31.60;;;17.85;;
53281;SDS011;39167;52.794;6.892;2023-03-01T02:36:06;28.63;;;17.15;;
53281;SDS011;39167;52.794;6.892;2023-03-01T02:38:39;30.88;;;18.15;;
53281;SDS011;39167;52.794;6.892;2023-03-01T02:41:06;29.50;;;17.50;;
53281;SDS011;39167;52.794;6.892;2023-03-01T02:43:35;26.02;;;16.23;;
53281;SDS011;39167;52.794;6.892;2023-03-01T02:46:08;31.35;;;17.42;;
53281;SDS011;39167;52.794;6.892;2023-03-01T02:48:44;27.65;;;16.73;;
53281;SDS011;39167;52.794;6.892;2023-03-01T02:56:52;27.13;;;16.67;;
53281;SDS011;39167;52.794;6.892;2023-03-01T02:59:20;26.70;;;16.63;;
53281;SDS011;39167;52.794;6.892;2023-03-01T03:01:48;28.65;;;16.60;;
53281;SDS011;39167;52.794;6.892;2023-03-01T03:04:15;27.52;;;17.63;;
53281;SDS011;39167;52.794;6.892;2023-03-01T03:06:46;28.25;;;17.42;;
53281;SDS011;39167;52.794;6.892;2023-03-01T03:09:14;29.17;;;15.87;;
53281;SDS011;39167;52.794;6.892;2023-03-01T03:11:41;26.73;;;16.58;;
53281;SDS011;39167;52.794;6.892;2023-03-01T03:14:12;30.20;;;17.38;;
53281;SDS011;39167;52.794;6.892;2023-03-01T03:16:40;26.75;;;16.85;;
53281;SDS011;39167;52.794;6.892;2023-03-01T03:19:07;31.45;;;17.70;;
53281;SDS011;39167;52.794;6.892;2023-03-01T03:21:33;28.77;;;17.30;;
53281;SDS011;39167;52.794;6.892;2023-03-01T03:23:59;28.20;;;17.23;;
53281;SDS011;39167;52.794;6.892;2023-03-01T03:26:25;29.45;;;16.67;;
53281;SDS011;39167;52.794;6.892;2023-03-01T03:28:51;30.13;;;17.75;;
53281;SDS011;39167;52.794;6.892;2023-03-01T03:31:17;28.27;;;16.80;;
53281;SDS011;39167;52.794;6.892;2023-03-01T03:33:43;29.48;;;17.35;;
53281;SDS011;39167;52.794;6.892;2023-03-01T03:36:09;27.83;;;16.60;;
53281;SDS011;39167;52.794;6.892;2023-03-01T03:38:38;30.20;;;17.30;;
53281;SDS011;39167;52.794;6.892;2023-03-01T03:41:06;27.70;;;15.80;;
53281;SDS011;39167;52.794;6.892;2023-03-01T03:43:36;25.67;;;15.80;;
53281;SDS011;39167;52.794;6.892;2023-03-01T03:46:03;27.00;;;16.73;;
53281;SDS011;39167;52.794;6.892;2023-03-01T03:48:31;29.13;;;17.45;;
53281;SDS011;39167;52.794;6.892;2023-03-01T03:50:59;30.20;;;17.35;;
53281;SDS011;39167;52.794;6.892;2023-03-01T03:53:25;30.35;;;17.50;;
53281;SDS011;39167;52.794;6.892;2023-03-01T03:55:53;29.45;;;17.10;;
53281;SDS011;39167;52.794;6.892;2023-03-01T03:58:20;33.50;;;16.88;;
53281;SDS011;39167;52.794;6.892;2023-03-01T04:00:49;29.15;;;15.80;;
53281;SDS011;39167;52.794;6.892;2023-03-01T04:03:17;26.70;;;15.70;;
53281;SDS011;39167;52.794;6.892;2023-03-01T04:05:44;24.50;;;15.77;;
53281;SDS011;39167;52.794;6.892;2023-03-01T04:08:10;29.42;;;16.95;;
53281;SDS011;39167;52.794;6.892;2023-03-01T04:10:40;27.73;;;17.38;;
53281;SDS011;39167;52.794;6.892;2023-03-01T04:13:10;28.85;;;16.85;;
53281;SDS011;39167;52.794;6.892;2023-03-01T04:15:38;26.52;;;17.05;;
53281;SDS011;39167;52.794;6.892;2023-03-01T04:18:04;28.63;;;16.63;;
53281;SDS011;39167;52.794;6.892;2023-03-01T04:20:32;30.67;;;16.20;;
53281;SDS011;39167;52.794;6.892;2023-03-01T04:25:40;31.48;;;18.20;;
53281;SDS011;39167;52.794;6.892;2023-03-01T04:28:08;27.98;;;16.35;;
53281;SDS011;39167;52.794;6.892;2023-03-01T04:30:35;30.63;;;16.95;;
53281;SDS011;39167;52.794;6.892;2023-03-01T04:33:02;26.70;;;16.00;;
53281;SDS011;39167;52.794;6.892;2023-03-01T04:35:31;30.27;;;17.05;;
53281;SDS011;39167;52.794;6.892;2023-03-01T04:37:57;33.88;;;16.75;;
53281;SDS011;39167;52.794;6.892;2023-03-01T04:40:23;24.40;;;15.57;;
53281;SDS011;39167;52.794;6.892;2023-03-01T04:42:50;28.27;;;15.18;;
53281;SDS011;39167;52.794;6.892;2023-03-01T04:45:16;32.85;;;16.58;;
53281;SDS011;39167;52.794;6.892;2023-03-01T04:47:42;27.27;;;16.70;;
53281;SDS011;39167;52.794;6.892;2023-03-01T04:50:13;31.35;;;17.38;;
53281;SDS011;39167;52.794;6.892;2023-03-01T04:52:40;26.95;;;15.95;;
53281;SDS011;39167;52.794;6.892;2023-03-01T04:55:07;26.63;;;16.30;;
53281;SDS011;39167;52.794;6.892;2023-03-01T04:57:33;27.65;;;15.63;;
53281;SDS011;39167;52.794;6.892;2023-03-01T04:59:59;30.17;;;16.92;;
53281;SDS011;39167;52.794;6.892;2023-03-01T05:02:25;25.92;;;15.60;;
53281;SDS011;39167;52.794;6.892;2023-03-01T05:04:50;28.92;;;16.70;;
53281;SDS011;39167;52.794;6.892;2023-03-01T05:07:17;28.23;;;16.58;;
53281;SDS011;39167;52.794;6.892;2023-03-01T05:09:45;27.00;;;16.00;;
53281;SDS011;39167;52.794;6.892;2023-03-01T05:12:14;28.83;;;17.05;;
53281;SDS011;39167;52.794;6.892;2023-03-01T05:14:40;26.55;;;16.15;;
53281;SDS011;39167;52.794;6.892;2023-03-01T05:17:07;28.40;;;16.38;;
53281;SDS011;39167;52.794;6.892;2023-03-01T05:19:33;30.93;;;17.33;;
53281;SDS011;39167;52.794;6.892;2023-03-01T05:21:59;27.80;;;16.35;;
53281;SDS011;39167;52.794;6.892;2023-03-01T05:24:29;25.83;;;15.75;;
53281;SDS011;39167;52.794;6.892;2023-03-01T05:26:57;28.90;;;17.13;;
53281;SDS011;39167;52.794;6.892;2023-03-01T05:29:24;25.48;;;15.75;;
53281;SDS011;39167;52.794;6.892;2023-03-01T05:31:54;25.90;;;16.33;;
53281;SDS011;39167;52.794;6.892;2023-03-01T05:34:27;27.15;;;15.93;;
53281;SDS011;39167;52.794;6.892;2023-03-01T05:36:57;36.00;;;17.63;;
53281;SDS011;39167;52.794;6.892;2023-03-01T05:39:24;26.27;;;16.25;;
53281;SDS011;39167;52.794;6.892;2023-03-01T05:41:53;26.45;;;17.08;;
53281;SDS011;39167;52.794;6.892;2023-03-01T05:44:20;26.02;;;16.20;;
53281;SDS011;39167;52.794;6.892;2023-03-01T05:46:46;27.10;;;16.55;;
53281;SDS011;39167;52.794;6.892;2023-03-01T05:49:12;27.33;;;15.68;;
53281;SDS011;39167;52.794;6.892;2023-03-01T05:51:39;28.80;;;16.52;;
53281;SDS011;39167;52.794;6.892;2023-03-01T05:54:06;28.15;;;16.30;;
53281;SDS011;39167;52.794;6.892;2023-03-01T05:56:36;30.63;;;16.80;;
53281;SDS011;39167;52.794;6.892;2023-03-01T05:59:02;30.85;;;17.05;;
53281;SDS011;39167;52.794;6.892;2023-03-01T06:01:30;31.15;;;16.88;;
53281;SDS011;39167;52.794;6.892;2023-03-01T06:03:59;29.08;;;17.10;;
53281;SDS011;39167;52.794;6.892;2023-03-01T06:06:25;32.20;;;17.70;;
53281;SDS011;39167;52.794;6.892;2023-03-01T06:08:51;27.40;;;17.40;;
53281;SDS011;39167;52.794;6.892;2023-03-01T06:11:18;29.60;;;17.00;;
53281;SDS011;39167;52.794;6.892;2023-03-01T06:13:45;26.00;;;15.98;;
53281;SDS011;39167;52.794;6.892;2023-03-01T06:16:11;29.05;;;16.65;;
53281;SDS011;39167;52.794;6.892;2023-03-01T06:18:37;29.88;;;16.80;;
53281;SDS011;39167;52.794;6.892;2023-03-01T06:21:04;31.73;;;17.98;;
53281;SDS011;39167;52.794;6.892;2023-03-01T06:23:31;29.88;;;16.17;;
53281;SDS011;39167;52.794;6.892;2023-03-01T06:25:56;30.10;;;17.55;;
53281;SDS011;39167;52.794;6.892;2023-03-01T06:28:22;27.77;;;16.92;;
53281;SDS011;39167;52.794;6.892;2023-03-01T06:30:49;28.10;;;17.42;;
53281;SDS011;39167;52.794;6.892;2023-03-01T06:33:15;29.13;;;17.17;;
53281;SDS011;39167;52.794;6.892;2023-03-01T06:35:41;30.80;;;17.30;;
53281;SDS011;39167;52.794;6.892;2023-03-01T06:38:06;30.35;;;18.63;;
53281;SDS011;39167;52.794;6.892;2023-03-01T06:40:32;31.17;;;18.00;;
53281;SDS011;39167;52.794;6.892;2023-03-01T06:43:00;29.30;;;16.75;;
53281;SDS011;39167;52.794;6.892;2023-03-01T06:45:26;32.28;;;17.98;;
53281;SDS011;39167;52.794;6.892;2023-03-01T06:47:52;30.48;;;17.17;;
53281;SDS011;39167;52.794;6.892;2023-03-01T06:50:25;34.53;;;18.88;;
53281;SDS011;39167;52.794;6.892;2023-03-01T06:52:55;33.33;;;18.10;;
53281;SDS011;39167;52.794;6.892;2023-03-01T06:55:21;33.28;;;18.13;;
53281;SDS011;39167;52.794;6.892;2023-03-01T06:57:47;33.00;;;19.05;;
53281;SDS011;39167;52.794;6.892;2023-03-01T07:00:13;32.17;;;18.67;;
53281;SDS011;39167;52.794;6.892;2023-03-01T07:02:39;31.88;;;18.52;;
53281;SDS011;39167;52.794;6.892;2023-03-01T07:05:05;32.50;;;19.10;;
53281;SDS011;39167;52.794;6.892;2023-03-01T07:07:31;31.33;;;18.33;;
53281;SDS011;39167;52.794;6.892;2023-03-01T07:09:57;30.25;;;17.75;;
53281;SDS011;39167;52.794;6.892;2023-03-01T07:12:22;30.48;;;18.40;;
53281;SDS011;39167;52.794;6.892;2023-03-01T07:14:48;30.10;;;17.98;;
53281;SDS011;39167;52.794;6.892;2023-03-01T07:17:14;32.50;;;19.48;;
53281;SDS011;39167;52.794;6.892;2023-03-01T07:19:40;30.13;;;17.95;;
53281;SDS011;39167;52.794;6.892;2023-03-01T07:22:05;32.92;;;17.60;;
53281;SDS011;39167;52.794;6.892;2023-03-01T07:24:33;31.90;;;18.23;;
53281;SDS011;39167;52.794;6.892;2023-03-01T07:26:59;32.75;;;19.20;;
53281;SDS011;39167;52.794;6.892;2023-03-01T07:29:24;31.17;;;18.08;;
53281;SDS011;39167;52.794;6.892;2023-03-01T07:31:50;32.13;;;18.83;;
53281;SDS011;39167;52.794;6.892;2023-03-01T07:34:16;29.30;;;18.15;;
53281;SDS011;39167;52.794;6.892;2023-03-01T07:36:41;33.10;;;18.25;;
53281;SDS011;39167;52.794;6.892;2023-03-01T07:39:09;29.88;;;17.73;;
53281;SDS011;39167;52.794;6.892;2023-03-01T07:41:35;31.58;;;18.45;;
53281;SDS011;39167;52.794;6.892;2023-03-01T07:44:01;36.30;;;19.45;;
53281;SDS011;39167;52.794;6.892;2023-03-01T07:46:26;30.80;;;18.52;;
53281;SDS011;39167;52.794;6.892;2023-03-01T07:48:52;35.65;;;19.08;;
53281;SDS011;39167;52.794;6.892;2023-03-01T07:51:18;35.25;;;19.98;;
53281;SDS011;39167;52.794;6.892;2023-03-01T07:53:45;34.20;;;19.70;;
53281;SDS011;39167;52.794;6.892;2023-03-01T07:56:13;36.33;;;20.35;;
53281;SDS011;39167;52.794;6.892;2023-03-01T07:58:41;33.08;;;19.05;;
53281;SDS011;39167;52.794;6.892;2023-03-01T08:01:08;39.95;;;20.67;;
53281;SDS011;39167;52.794;6.892;2023-03-01T08:03:36;41.03;;;24.02;;
53281;SDS011;39167;52.794;6.892;2023-03-01T08:06:03;39.03;;;23.20;;
53281;SDS011;39167;52.794;6.892;2023-03-01T08:08:30;49.78;;;25.08;;
53281;SDS011;39167;52.794;6.892;2023-03-01T08:10:56;36.28;;;21.73;;
53281;SDS011;39167;52.794;6.892;2023-03-01T08:13:26;46.70;;;25.45;;
53281;SDS011;39167;52.794;6.892;2023-03-01T08:15:54;47.90;;;26.23;;
53281;SDS011;39167;52.794;6.892;2023-03-01T08:18:20;52.80;;;26.23;;
53281;SDS011;39167;52.794;6.892;2023-03-01T08:20:47;47.85;;;24.85;;
53281;SDS011;39167;52.794;6.892;2023-03-01T08:23:13;44.78;;;26.33;;
53281;SDS011;39167;52.794;6.892;2023-03-01T08:25:39;40.83;;;23.70;;
53281;SDS011;39167;52.794;6.892;2023-03-01T08:28:04;39.60;;;21.60;;
53281;SDS011;39167;52.794;6.892;2023-03-01T08:30:30;37.15;;;22.00;;
53281;SDS011;39167;52.794;6.892;2023-03-01T08:32:56;36.83;;;22.05;;
53281;SDS011;39167;52.794;6.892;2023-03-01T08:35:22;37.78;;;21.83;;
53281;SDS011;39167;52.794;6.892;2023-03-01T08:37:48;32.03;;;18.77;;
53281;SDS011;39167;52.794;6.892;2023-03-01T08:40:14;33.03;;;18.88;;
53281;SDS011;39167;52.794;6.892;2023-03-01T08:42:40;28.63;;;17.33;;
53281;SDS011;39167;52.794;6.892;2023-03-01T08:45:07;27.92;;;16.67;;
53281;SDS011;39167;52.794;6.892;2023-03-01T08:47:34;27.17;;;15.98;;
53281;SDS011;39167;52.794;6.892;2023-03-01T08:50:00;28.20;;;14.50;;
53281;SDS011;39167;52.794;6.892;2023-03-01T08:52:26;21.42;;;11.95;;
53281;SDS011;39167;52.794;6.892;2023-03-01T08:54:52;19.13;;;12.25;;
53281;SDS011;39167;52.794;6.892;2023-03-01T08:57:18;21.55;;;12.63;;
53281;SDS011;39167;52.794;6.892;2023-03-01T08:59:44;18.35;;;10.27;;
53281;SDS011;39167;52.794;6.892;2023-03-01T09:02:11;17.45;;;9.70;;
53281;SDS011;39167;52.794;6.892;2023-03-01T09:04:39;16.13;;;9.55;;
53281;SDS011;39167;52.794;6.892;2023-03-01T09:07:04;12.43;;;8.10;;
53281;SDS011;39167;52.794;6.892;2023-03-01T09:09:31;17.60;;;8.80;;
53281;SDS011;39167;52.794;6.892;2023-03-01T09:11:56;16.95;;;9.20;;
53281;SDS011;39167;52.794;6.892;2023-03-01T09:14:22;12.82;;;7.70;;
53281;SDS011;39167;52.794;6.892;2023-03-01T09:16:48;14.55;;;8.55;;
53281;SDS011;39167;52.794;6.892;2023-03-01T09:19:14;13.88;;;7.93;;
53281;SDS011;39167;52.794;6.892;2023-03-01T09:21:41;13.60;;;8.27;;
53281;SDS011;39167;52.794;6.892;2023-03-01T09:26:38;10.95;;;6.45;;
53281;SDS011;39167;52.794;6.892;2023-03-01T09:29:04;12.77;;;6.50;;
53281;SDS011;39167;52.794;6.892;2023-03-01T09:31:30;11.57;;;6.18;;
53281;SDS011;39167;52.794;6.892;2023-03-01T09:33:56;11.82;;;6.22;;
53281;SDS011;39167;52.794;6.892;2023-03-01T09:36:22;12.45;;;7.10;;
53281;SDS011;39167;52.794;6.892;2023-03-01T09:38:50;11.55;;;6.97;;
53281;SDS011;39167;52.794;6.892;2023-03-01T09:43:52;16.35;;;8.02;;
53281;SDS011;39167;52.794;6.892;2023-03-01T09:46:24;13.60;;;7.60;;
53281;SDS011;39167;52.794;6.892;2023-03-01T09:51:23;12.07;;;6.47;;
53281;SDS011;39167;52.794;6.892;2023-03-01T09:54:01;10.55;;;5.88;;
53281;SDS011;39167;52.794;6.892;2023-03-01T09:58:59;9.68;;;4.63;;
53281;SDS011;39167;52.794;6.892;2023-03-01T10:04:51;10.20;;;4.75;;
53281;SDS011;39167;52.794;6.892;2023-03-01T10:10:05;10.80;;;5.50;;
53281;SDS011;39167;52.794;6.892;2023-03-01T10:12:35;8.52;;;5.13;;
53281;SDS011;39167;52.794;6.892;2023-03-01T10:15:14;7.65;;;4.72;;
53281;SDS011;39167;52.794;6.892;2023-03-01T10:17:44;10.02;;;6.28;;
53281;SDS011;39167;52.794;6.892;2023-03-01T10:20:23;12.25;;;6.20;;
53281;SDS011;39167;52.794;6.892;2023-03-01T10:22:58;11.73;;;5.70;;
53281;SDS011;39167;52.794;6.892;2023-03-01T10:28:17;10.15;;;6.10;;
53281;SDS011;39167;52.794;6.892;2023-03-01T10:30:46;12.60;;;6.07;;
53281;SDS011;39167;52.794;6.892;2023-03-01T10:33:22;9.73;;;6.60;;
53281;SDS011;39167;52.794;6.892;2023-03-01T10:35:51;11.27;;;6.13;;
53281;SDS011;39167;52.794;6.892;2023-03-01T10:38:17;13.38;;;6.30;;
53281;SDS011;39167;52.794;6.892;2023-03-01T10:40:55;12.07;;;5.05;;
53281;SDS011;39167;52.794;6.892;2023-03-01T10:43:24;9.07;;;5.03;;
53281;SDS011;39167;52.794;6.892;2023-03-01T10:45:51;11.50;;;5.15;;
53281;SDS011;39167;52.794;6.892;2023-03-01T10:50:50;10.63;;;5.68;;
53281;SDS011;39167;52.794;6.892;2023-03-01T10:53:47;9.23;;;5.78;;
53281;SDS011;39167;52.794;6.892;2023-03-01T10:56:15;8.80;;;5.07;;
53281;SDS011;39167;52.794;6.892;2023-03-01T10:58:56;8.85;;;4.80;;
53281;SDS011;39167;52.794;6.892;2023-03-01T11:01:31;11.68;;;5.00;;
53281;SDS011;39167;52.794;6.892;2023-03-01T11:06:28;8.82;;;4.68;;
53281;SDS011;39167;52.794;6.892;2023-03-01T11:08:54;8.88;;;4.25;;
53281;SDS011;39167;52.794;6.892;2023-03-01T11:11:33;9.23;;;3.97;;
53281;SDS011;39167;52.794;6.892;2023-03-01T11:14:03;8.15;;;4.30;;
53281;SDS011;39167;52.794;6.892;2023-03-01T11:16:47;8.85;;;4.10;;
53281;SDS011;39167;52.794;6.892;2023-03-01T11:19:22;8.55;;;4.22;;
53281;SDS011;39167;52.794;6.892;2023-03-01T11:26:56;7.60;;;4.40;;
53281;SDS011;39167;52.794;6.892;2023-03-01T11:29:30;7.50;;;4.68;;
53281;SDS011;39167;52.794;6.892;2023-03-01T11:32:02;10.60;;;5.50;;
53281;SDS011;39167;52.794;6.892;2023-03-01T11:34:40;9.13;;;5.07;;
53281;SDS011;39167;52.794;6.892;2023-03-01T11:37:41;8.98;;;5.20;;
53281;SDS011;39167;52.794;6.892;2023-03-01T11:40:23;8.95;;;5.45;;
53281;SDS011;39167;52.794;6.892;2023-03-01T11:45:53;11.63;;;5.95;;
53281;SDS011;39167;52.794;6.892;2023-03-01T11:51:33;11.52;;;6.35;;
53281;SDS011;39167;52.794;6.892;2023-03-01T11:54:22;10.32;;;6.15;;
53281;SDS011;39167;52.794;6.892;2023-03-01T11:57:20;12.10;;;5.72;;
53281;SDS011;39167;52.794;6.892;2023-03-01T12:11:16;9.82;;;5.38;;
53281;SDS011;39167;52.794;6.892;2023-03-01T12:19:32;10.55;;;5.60;;
53281;SDS011;39167;52.794;6.892;2023-03-01T12:22:28;10.95;;;6.13;;
53281;SDS011;39167;52.794;6.892;2023-03-01T12:30:48;11.35;;;5.85;;
53281;SDS011;39167;52.794;6.892;2023-03-01T12:36:39;12.25;;;6.55;;
53281;SDS011;39167;52.794;6.892;2023-03-01T12:39:25;12.75;;;6.57;;
53281;SDS011;39167;52.794;6.892;2023-03-01T12:44:50;11.13;;;6.20;;
53281;SDS011;39167;52.794;6.892;2023-03-01T12:50:21;13.75;;;6.53;;
53281;SDS011;39167;52.794;6.892;2023-03-01T12:52:53;11.80;;;6.03;;
53281;SDS011;39167;52.794;6.892;2023-03-01T13:00:45;13.57;;;5.50;;
53281;SDS011;39167;52.794;6.892;2023-03-01T13:11:28;10.60;;;6.22;;
53281;SDS011;39167;52.794;6.892;2023-03-01T13:16:45;13.75;;;6.55;;
53281;SDS011;39167;52.794;6.892;2023-03-01T13:19:21;16.13;;;7.43;;
53281;SDS011;39167;52.794;6.892;2023-03-01T13:21:50;11.65;;;6.55;;
53281;SDS011;39167;52.794;6.892;2023-03-01T13:35:00;13.45;;;7.63;;
53281;SDS011;39167;52.794;6.892;2023-03-01T13:37:38;14.68;;;7.97;;
53281;SDS011;39167;52.794;6.892;2023-03-01T13:42:51;16.48;;;8.23;;
53281;SDS011;39167;52.794;6.892;2023-03-01T13:45:24;16.13;;;8.70;;
53281;SDS011;39167;52.794;6.892;2023-03-01T13:48:09;13.70;;;8.60;;
53281;SDS011;39167;52.794;6.892;2023-03-01T13:50:38;15.48;;;9.32;;
53281;SDS011;39167;52.794;6.892;2023-03-01T13:53:11;16.08;;;9.32;;
53281;SDS011;39167;52.794;6.892;2023-03-01T13:55:45;15.63;;;9.18;;
53281;SDS011;39167;52.794;6.892;2023-03-01T13:58:24;16.35;;;9.07;;
53281;SDS011;39167;52.794;6.892;2023-03-01T14:00:56;18.65;;;8.75;;
53281;SDS011;39167;52.794;6.892;2023-03-01T14:03:26;15.07;;;9.10;;
53281;SDS011;39167;52.794;6.892;2023-03-01T14:06:09;16.73;;;8.55;;
53281;SDS011;39167;52.794;6.892;2023-03-01T14:08:38;15.05;;;7.82;;
53281;SDS011;39167;52.794;6.892;2023-03-01T14:11:20;15.20;;;8.25;;
53281;SDS011;39167;52.794;6.892;2023-03-01T14:14:16;14.07;;;8.70;;
53281;SDS011;39167;52.794;6.892;2023-03-01T14:19:54;13.55;;;8.40;;
53281;SDS011;39167;52.794;6.892;2023-03-01T14:24:50;15.15;;;8.43;;
53281;SDS011;39167;52.794;6.892;2023-03-01T14:27:21;15.38;;;9.00;;
53281;SDS011;39167;52.794;6.892;2023-03-01T14:29:55;15.07;;;9.02;;
53281;SDS011;39167;52.794;6.892;2023-03-01T14:32:27;16.67;;;9.55;;
53281;SDS011;39167;52.794;6.892;2023-03-01T14:34:54;16.55;;;8.60;;
53281;SDS011;39167;52.794;6.892;2023-03-01T14:37:26;15.75;;;9.00;;
53281;SDS011;39167;52.794;6.892;2023-03-01T14:39:52;19.10;;;9.13;;
53281;SDS011;39167;52.794;6.892;2023-03-01T14:42:19;17.13;;;8.88;;
53281;SDS011;39167;52.794;6.892;2023-03-01T14:44:49;13.85;;;8.95;;
53281;SDS011;39167;52.794;6.892;2023-03-01T14:47:23;15.63;;;8.73;;
53281;SDS011;39167;52.794;6.892;2023-03-01T14:49:58;17.50;;;8.52;;
53281;SDS011;39167;52.794;6.892;2023-03-01T14:52:27;14.63;;;8.27;;
53281;SDS011;39167;52.794;6.892;2023-03-01T14:55:03;14.30;;;8.75;;
53281;SDS011;39167;52.794;6.892;2023-03-01T14:57:42;17.77;;;9.20;;
53281;SDS011;39167;52.794;6.892;2023-03-01T15:00:10;13.57;;;8.52;;
53281;SDS011;39167;52.794;6.892;2023-03-01T15:02:56;13.02;;;8.63;;
53281;SDS011;39167;52.794;6.892;2023-03-01T15:05:34;14.98;;;8.63;;
53281;SDS011;39167;52.794;6.892;2023-03-01T15:08:02;12.82;;;7.88;;
53281;SDS011;39167;52.794;6.892;2023-03-01T15:10:33;16.13;;;8.35;;
53281;SDS011;39167;52.794;6.892;2023-03-01T15:13:11;15.68;;;8.23;;
53281;SDS011;39167;52.794;6.892;2023-03-01T15:15:40;12.60;;;7.78;;
53281;SDS011;39167;52.794;6.892;2023-03-01T15:18:18;15.68;;;8.65;;
53281;SDS011;39167;52.794;6.892;2023-03-01T15:20:51;12.70;;;7.75;;
53281;SDS011;39167;52.794;6.892;2023-03-01T15:25:46;14.80;;;8.13;;
53281;SDS011;39167;52.794;6.892;2023-03-01T15:28:17;15.13;;;8.30;;
53281;SDS011;39167;52.794;6.892;2023-03-01T15:30:45;12.52;;;7.95;;
53281;SDS011;39167;52.794;6.892;2023-03-01T15:33:27;12.43;;;7.63;;
53281;SDS011;39167;52.794;6.892;2023-03-01T15:35:59;14.13;;;8.10;;
53281;SDS011;39167;52.794;6.892;2023-03-01T15:40:57;13.40;;;8.50;;
53281;SDS011;39167;52.794;6.892;2023-03-01T15:43:37;12.52;;;7.93;;
53281;SDS011;39167;52.794;6.892;2023-03-01T15:46:04;15.93;;;8.90;;
53281;SDS011;39167;52.794;6.892;2023-03-01T15:48:29;14.27;;;8.70;;
53281;SDS011;39167;52.794;6.892;2023-03-01T15:50:56;13.07;;;8.98;;
53281;SDS011;39167;52.794;6.892;2023-03-01T15:53:23;16.75;;;9.07;;
53281;SDS011;39167;52.794;6.892;2023-03-01T15:55:52;16.00;;;9.32;;
53281;SDS011;39167;52.794;6.892;2023-03-01T15:58:18;14.57;;;9.48;;
53281;SDS011;39167;52.794;6.892;2023-03-01T16:00:46;18.17;;;9.82;;
53281;SDS011;39167;52.794;6.892;2023-03-01T16:03:13;16.00;;;10.63;;
53281;SDS011;39167;52.794;6.892;2023-03-01T16:05:54;15.10;;;9.77;;
53281;SDS011;39167;52.794;6.892;2023-03-01T16:08:20;18.77;;;10.45;;
53281;SDS011;39167;52.794;6.892;2023-03-01T16:10:46;14.88;;;9.88;;
53281;SDS011;39167;52.794;6.892;2023-03-01T16:13:14;15.02;;;9.20;;
53281;SDS011;39167;52.794;6.892;2023-03-01T16:15:40;15.23;;;9.07;;
53281;SDS011;39167;52.794;6.892;2023-03-01T16:18:06;15.52;;;9.20;;
53281;SDS011;39167;52.794;6.892;2023-03-01T16:20:35;13.55;;;9.23;;
53281;SDS011;39167;52.794;6.892;2023-03-01T16:23:02;13.65;;;9.18;;
53281;SDS011;39167;52.794;6.892;2023-03-01T16:25:30;16.05;;;9.73;;
53281;SDS011;39167;52.794;6.892;2023-03-01T16:27:56;15.50;;;9.07;;
53281;SDS011;39167;52.794;6.892;2023-03-01T16:30:25;16.88;;;10.25;;
53281;SDS011;39167;52.794;6.892;2023-03-01T16:32:50;15.35;;;9.05;;
53281;SDS011;39167;52.794;6.892;2023-03-01T16:35:18;13.60;;;9.25;;
53281;SDS011;39167;52.794;6.892;2023-03-01T16:37:45;15.98;;;9.55;;
53281;SDS011;39167;52.794;6.892;2023-03-01T16:40:22;15.30;;;9.43;;
53281;SDS011;39167;52.794;6.892;2023-03-01T16:42:51;13.68;;;8.57;;
53281;SDS011;39167;52.794;6.892;2023-03-01T16:45:17;14.27;;;9.35;;